sensor_id;sensor_type;location;lat;lon;timestamp;pressure;altitude;pressure_sealevel;temperature;humidity
10688;BME280;5392;42.688;23.298;2023-02-01T00:00:28;57578.31;;;-144.48;100.00
10688;BME280;5392;42.688;23.298;2023-02-01T00:02:54;57605.47;;;-144.48;100.00
10688;BME280;5392;42.688;23.298;2023-02-01T00:05:21;57603.38;;;-144.48;100.00
10688;BME280;5392;42.688;23.298;2023-02-01T00:07:48;57597.09;;;-144.48;100.00
10688;BME280;5392;42.688;23.298;2023-02-01T00:10:15;57607.53;;;-144.48;100.00
10688;BME280;5392;42.688;23.298;2023-02-01T00:12:43;57634.69;;;-144.48;100.00
10688;BME280;5392;42.688;23.298;2023-02-01T00:15:09;57628.41;;;-144.48;100.00
10688;BME280;5392;42.688;23.298;2023-02-01T00:17:36;57620.06;;;-144.48;100.00
10688;BME280;5392;42.688;23.298;2023-02-01T00:20:04;57595.03;;;-144.48;100.00
10688;BME280;5392;42.688;23.298;2023-02-01T00:22:30;57572.06;;;-144.48;100.00
10688;BME280;5392;42.688;23.298;2023-02-01T00:24:57;57582.50;;;-144.48;100.00
10688;BME280;5392;42.688;23.298;2023-02-01T00:27:24;57607.53;;;-144.48;100.00
10688;BME280;5392;42.688;23.298;2023-02-01T00:29:50;57588.75;;;-144.48;100.00
10688;BME280;5392;42.688;23.298;2023-02-01T00:32:17;57607.53;;;-144.48;100.00
10688;BME280;5392;42.688;23.298;2023-02-01T00:34:44;57565.81;;;-144.48;100.00
10688;BME280;5392;42.688;23.298;2023-02-01T00:37:10;57595.03;;;-144.48;100.00
10688;BME280;5392;42.688;23.298;2023-02-01T00:39:37;57549.09;;;-144.48;100.00
10688;BME280;5392;42.688;23.298;2023-02-01T00:42:04;57588.75;;;-144.48;100.00
10688;BME280;5392;42.688;23.298;2023-02-01T00:44:31;57538.66;;;-144.48;100.00
10688;BME280;5392;42.688;23.298;2023-02-01T00:47:00;57617.97;;;-144.48;100.00
10688;BME280;5392;42.688;23.298;2023-02-01T00:49:28;57601.28;;;-144.48;100.00
10688;BME280;5392;42.688;23.298;2023-02-01T00:51:55;57578.31;;;-144.48;100.00
10688;BME280;5392;42.688;23.298;2023-02-01T00:54:21;57584.59;;;-144.48;100.00
10688;BME280;5392;42.688;23.298;2023-02-01T00:56:49;57592.94;;;-144.48;100.00
10688;BME280;5392;42.688;23.298;2023-02-01T00:59:15;57592.94;;;-144.48;100.00
10688;BME280;5392;42.688;23.298;2023-02-01T01:01:42;57609.63;;;-144.48;100.00
10688;BME280;5392;42.688;23.298;2023-02-01T01:04:09;57617.97;;;-144.48;100.00
10688;BME280;5392;42.688;23.298;2023-02-01T01:06:36;57599.19;;;-144.48;100.00
10688;BME280;5392;42.688;23.298;2023-02-01T01:09:05;57609.63;;;-144.48;100.00
10688;BME280;5392;42.688;23.298;2023-02-01T01:11:35;57580.41;;;-144.48;100.00
10688;BME280;5392;42.688;23.298;2023-02-01T01:14:04;57551.19;;;-144.48;100.00
10688;BME280;5392;42.688;23.298;2023-02-01T01:16:31;57605.47;;;-144.48;100.00
10688;BME280;5392;42.688;23.298;2023-02-01T01:18:59;57607.53;;;-144.48;100.00
10688;BME280;5392;42.688;23.298;2023-02-01T01:21:26;57605.47;;;-144.48;100.00
10688;BME280;5392;42.688;23.298;2023-02-01T01:23:53;57567.88;;;-144.48;100.00
10688;BME280;5392;42.688;23.298;2023-02-01T01:26:22;57586.66;;;-144.48;100.00
10688;BME280;5392;42.688;23.298;2023-02-01T01:28:50;57615.91;;;-144.48;100.00
10688;BME280;5392;42.688;23.298;2023-02-01T01:31:18;57569.97;;;-144.48;100.00
10688;BME280;5392;42.688;23.298;2023-02-01T01:33:57;57565.81;;;-144.48;100.00
10688;BME280;5392;42.688;23.298;2023-02-01T01:36:26;57599.19;;;-144.48;100.00
10688;BME280;5392;42.688;23.298;2023-02-01T01:38:53;57592.94;;;-144.48;100.00
10688;BME280;5392;42.688;23.298;2023-02-01T01:41:22;57569.97;;;-144.48;100.00
10688;BME280;5392;42.688;23.298;2023-02-01T01:46:35;57626.34;;;-144.48;100.00
10688;BME280;5392;42.688;23.298;2023-02-01T01:49:12;57559.53;;;-144.48;100.00
10688;BME280;5392;42.688;23.298;2023-02-01T01:51:46;57553.28;;;-144.48;100.00
10688;BME280;5392;42.688;23.298;2023-02-01T01:54:18;57542.84;;;-144.48;100.00
10688;BME280;5392;42.688;23.298;2023-02-01T01:56:50;57605.47;;;-144.48;100.00
10688;BME280;5392;42.688;23.298;2023-02-01T01:59:20;57611.72;;;-144.48;100.00
10688;BME280;5392;42.688;23.298;2023-02-01T02:01:48;57534.50;;;-144.48;100.00
10688;BME280;5392;42.688;23.298;2023-02-01T02:04:15;57601.28;;;-144.48;100.00
10688;BME280;5392;42.688;23.298;2023-02-01T02:09:23;57563.72;;;-144.48;100.00
10688;BME280;5392;42.688;23.298;2023-02-01T02:11:50;57601.28;;;-144.48;100.00
10688;BME280;5392;42.688;23.298;2023-02-01T02:14:19;57609.63;;;-144.48;100.00
10688;BME280;5392;42.688;23.298;2023-02-01T02:30:40;57605.47;;;-144.48;100.00
10688;BME280;5392;42.688;23.298;2023-02-01T02:33:32;57572.06;;;-144.48;100.00
10688;BME280;5392;42.688;23.298;2023-02-01T02:39:05;57551.19;;;-144.48;100.00
10688;BME280;5392;42.688;23.298;2023-02-01T02:42:42;57578.31;;;-144.48;100.00
10688;BME280;5392;42.688;23.298;2023-02-01T02:45:06;57569.97;;;-144.48;100.00
10688;BME280;5392;42.688;23.298;2023-02-01T02:48:20;57588.75;;;-144.48;100.00
10688;BME280;5392;42.688;23.298;2023-02-01T02:51:04;57572.06;;;-144.48;100.00
10688;BME280;5392;42.688;23.298;2023-02-01T02:54:12;57578.31;;;-144.48;100.00
10688;BME280;5392;42.688;23.298;2023-02-01T02:57:00;57582.50;;;-144.48;100.00
10688;BME280;5392;42.688;23.298;2023-02-01T02:59:47;57592.94;;;-144.48;100.00
10688;BME280;5392;42.688;23.298;2023-02-01T03:02:34;57595.03;;;-144.48;100.00
10688;BME280;5392;42.688;23.298;2023-02-01T03:05:19;57615.91;;;-144.48;100.00
10688;BME280;5392;42.688;23.298;2023-02-01T03:13:20;57592.94;;;-144.48;100.00
10688;BME280;5392;42.688;23.298;2023-02-01T03:16:03;57576.22;;;-144.48;100.00
10688;BME280;5392;42.688;23.298;2023-02-01T03:18:54;57590.84;;;-144.48;100.00
10688;BME280;5392;42.688;23.298;2023-02-01T03:21:38;57599.19;;;-144.48;100.00
10688;BME280;5392;42.688;23.298;2023-02-01T03:25:01;57580.41;;;-144.48;100.00
10688;BME280;5392;42.688;23.298;2023-02-01T03:27:44;57567.88;;;-144.48;100.00
10688;BME280;5392;42.688;23.298;2023-02-01T03:30:40;57557.44;;;-144.48;100.00
10688;BME280;5392;42.688;23.298;2023-02-01T03:33:14;57597.09;;;-144.48;100.00
10688;BME280;5392;42.688;23.298;2023-02-01T03:36:01;57557.44;;;-144.48;100.00
10688;BME280;5392;42.688;23.298;2023-02-01T03:38:45;57645.13;;;-144.48;100.00
10688;BME280;5392;42.688;23.298;2023-02-01T03:44:11;57588.75;;;-144.48;100.00
10688;BME280;5392;42.688;23.298;2023-02-01T03:46:50;57586.66;;;-144.48;100.00
10688;BME280;5392;42.688;23.298;2023-02-01T03:49:27;57590.84;;;-144.48;100.00
10688;BME280;5392;42.688;23.298;2023-02-01T03:51:55;57567.88;;;-144.48;100.00
10688;BME280;5392;42.688;23.298;2023-02-01T03:54:25;57532.41;;;-144.48;100.00
10688;BME280;5392;42.688;23.298;2023-02-01T03:56:55;57542.84;;;-144.48;100.00
10688;BME280;5392;42.688;23.298;2023-02-01T03:59:22;57609.63;;;-144.48;100.00
10688;BME280;5392;42.688;23.298;2023-02-01T04:01:50;57582.50;;;-144.48;100.00
10688;BME280;5392;42.688;23.298;2023-02-01T04:04:17;57607.53;;;-144.48;100.00
10688;BME280;5392;42.688;23.298;2023-02-01T04:06:50;57592.94;;;-144.48;100.00
10688;BME280;5392;42.688;23.298;2023-02-01T04:09:17;57584.59;;;-144.48;100.00
10688;BME280;5392;42.688;23.298;2023-02-01T04:11:43;57595.03;;;-144.48;100.00
10688;BME280;5392;42.688;23.298;2023-02-01T04:14:10;57584.59;;;-144.48;100.00
10688;BME280;5392;42.688;23.298;2023-02-01T04:16:37;57565.81;;;-144.48;100.00
10688;BME280;5392;42.688;23.298;2023-02-01T04:19:04;57576.22;;;-144.48;100.00
10688;BME280;5392;42.688;23.298;2023-02-01T04:21:31;57605.47;;;-144.48;100.00
10688;BME280;5392;42.688;23.298;2023-02-01T04:23:57;57559.53;;;-144.48;100.00
10688;BME280;5392;42.688;23.298;2023-02-01T04:26:24;57572.06;;;-144.48;100.00
10688;BME280;5392;42.688;23.298;2023-02-01T04:28:51;57576.22;;;-144.48;100.00
10688;BME280;5392;42.688;23.298;2023-02-01T04:31:19;57561.63;;;-144.48;100.00
10688;BME280;5392;42.688;23.298;2023-02-01T04:33:53;57582.50;;;-144.48;100.00
10688;BME280;5392;42.688;23.298;2023-02-01T04:36:23;57572.06;;;-144.48;100.00
10688;BME280;5392;42.688;23.298;2023-02-01T04:38:51;57563.72;;;-144.48;100.00
10688;BME280;5392;42.688;23.298;2023-02-01T04:41:19;57586.66;;;-144.48;100.00
10688;BME280;5392;42.688;23.298;2023-02-01T04:43:46;57597.09;;;-144.48;100.00
10688;BME280;5392;42.688;23.298;2023-02-01T04:46:13;57592.94;;;-144.48;100.00
10688;BME280;5392;42.688;23.298;2023-02-01T04:48:41;57638.84;;;-144.48;100.00
10688;BME280;5392;42.688;23.298;2023-02-01T04:51:08;57622.16;;;-144.48;100.00
10688;BME280;5392;42.688;23.298;2023-02-01T04:53:36;57638.84;;;-144.48;100.00
10688;BME280;5392;42.688;23.298;2023-02-01T04:56:03;57569.97;;;-144.48;100.00
10688;BME280;5392;42.688;23.298;2023-02-01T04:58:29;57555.38;;;-144.48;100.00
10688;BME280;5392;42.688;23.298;2023-02-01T05:00:56;57569.97;;;-144.48;100.00
10688;BME280;5392;42.688;23.298;2023-02-01T05:03:23;57584.59;;;-144.48;100.00
10688;BME280;5392;42.688;23.298;2023-02-01T05:05:50;57609.63;;;-144.48;100.00
10688;BME280;5392;42.688;23.298;2023-02-01T05:08:16;57601.28;;;-144.48;100.00
10688;BME280;5392;42.688;23.298;2023-02-01T05:10:44;57557.44;;;-144.48;100.00
10688;BME280;5392;42.688;23.298;2023-02-01T05:13:11;57615.91;;;-144.48;100.00
10688;BME280;5392;42.688;23.298;2023-02-01T05:15:56;57578.31;;;-144.48;100.00
10688;BME280;5392;42.688;23.298;2023-02-01T05:18:23;57628.41;;;-144.48;100.00
10688;BME280;5392;42.688;23.298;2023-02-01T05:20:50;57567.88;;;-144.48;100.00
10688;BME280;5392;42.688;23.298;2023-02-01T05:23:17;57563.72;;;-144.48;100.00
10688;BME280;5392;42.688;23.298;2023-02-01T05:25:43;57574.16;;;-144.48;100.00
10688;BME280;5392;42.688;23.298;2023-02-01T05:28:10;57547.00;;;-144.48;100.00
10688;BME280;5392;42.688;23.298;2023-02-01T05:30:37;57582.50;;;-144.48;100.00
10688;BME280;5392;42.688;23.298;2023-02-01T05:33:07;57595.03;;;-144.48;100.00
10688;BME280;5392;42.688;23.298;2023-02-01T05:35:34;57524.06;;;-144.48;100.00
10688;BME280;5392;42.688;23.298;2023-02-01T05:38:00;57559.53;;;-144.48;100.00
10688;BME280;5392;42.688;23.298;2023-02-01T05:40:27;57578.31;;;-144.48;100.00
10688;BME280;5392;42.688;23.298;2023-02-01T05:42:53;57536.56;;;-144.48;100.00
10688;BME280;5392;42.688;23.298;2023-02-01T05:45:20;57590.84;;;-144.48;100.00
10688;BME280;5392;42.688;23.298;2023-02-01T05:47:47;57578.31;;;-144.48;100.00
10688;BME280;5392;42.688;23.298;2023-02-01T05:50:14;57574.16;;;-144.48;100.00
10688;BME280;5392;42.688;23.298;2023-02-01T05:52:41;57578.31;;;-144.48;100.00
10688;BME280;5392;42.688;23.298;2023-02-01T05:55:08;57536.56;;;-144.48;100.00
10688;BME280;5392;42.688;23.298;2023-02-01T05:57:34;57605.47;;;-144.48;100.00
10688;BME280;5392;42.688;23.298;2023-02-01T06:00:02;57590.84;;;-144.48;100.00
10688;BME280;5392;42.688;23.298;2023-02-01T06:02:29;57605.47;;;-144.48;100.00
10688;BME280;5392;42.688;23.298;2023-02-01T06:04:56;57597.09;;;-144.48;100.00
10688;BME280;5392;42.688;23.298;2023-02-01T06:07:22;57538.66;;;-144.48;100.00
10688;BME280;5392;42.688;23.298;2023-02-01T06:09:50;57599.19;;;-144.48;100.00
10688;BME280;5392;42.688;23.298;2023-02-01T06:12:16;57607.53;;;-144.48;100.00
10688;BME280;5392;42.688;23.298;2023-02-01T06:14:43;57551.19;;;-144.48;100.00
10688;BME280;5392;42.688;23.298;2023-02-01T06:17:10;57626.34;;;-144.48;100.00
10688;BME280;5392;42.688;23.298;2023-02-01T06:19:36;57567.88;;;-144.48;100.00
10688;BME280;5392;42.688;23.298;2023-02-01T06:22:03;57599.19;;;-144.48;100.00
10688;BME280;5392;42.688;23.298;2023-02-01T06:24:32;57607.53;;;-144.48;100.00
10688;BME280;5392;42.688;23.298;2023-02-01T06:26:59;57617.97;;;-144.48;100.00
10688;BME280;5392;42.688;23.298;2023-02-01T06:29:25;57567.88;;;-144.48;100.00
10688;BME280;5392;42.688;23.298;2023-02-01T06:31:53;57588.75;;;-144.48;100.00
10688;BME280;5392;42.688;23.298;2023-02-01T06:34:20;57555.38;;;-144.48;100.00
10688;BME280;5392;42.688;23.298;2023-02-01T06:36:48;57620.06;;;-144.48;100.00
10688;BME280;5392;42.688;23.298;2023-02-01T06:39:15;57636.78;;;-144.48;100.00
10688;BME280;5392;42.688;23.298;2023-02-01T06:41:48;57582.50;;;-144.48;100.00
10688;BME280;5392;42.688;23.298;2023-02-01T06:44:16;57563.72;;;-144.48;100.00
10688;BME280;5392;42.688;23.298;2023-02-01T06:46:43;57569.97;;;-144.48;100.00
10688;BME280;5392;42.688;23.298;2023-02-01T06:49:10;57592.94;;;-144.48;100.00
10688;BME280;5392;42.688;23.298;2023-02-01T06:51:36;57576.22;;;-144.48;100.00
10688;BME280;5392;42.688;23.298;2023-02-01T06:54:03;57601.28;;;-144.48;100.00
10688;BME280;5392;42.688;23.298;2023-02-01T06:56:30;57599.19;;;-144.48;100.00
10688;BME280;5392;42.688;23.298;2023-02-01T06:58:57;57578.31;;;-144.48;100.00
10688;BME280;5392;42.688;23.298;2023-02-01T07:01:24;57595.03;;;-144.48;100.00
10688;BME280;5392;42.688;23.298;2023-02-01T07:03:51;57590.84;;;-144.48;100.00
10688;BME280;5392;42.688;23.298;2023-02-01T07:06:18;57563.72;;;-144.48;100.00
10688;BME280;5392;42.688;23.298;2023-02-01T07:08:45;57580.41;;;-144.48;100.00
10688;BME280;5392;42.688;23.298;2023-02-01T07:11:13;57586.66;;;-144.48;100.00
10688;BME280;5392;42.688;23.298;2023-02-01T07:13:40;57605.47;;;-144.48;100.00
10688;BME280;5392;42.688;23.298;2023-02-01T07:16:13;57584.59;;;-144.48;100.00
10688;BME280;5392;42.688;23.298;2023-02-01T07:18:40;57582.50;;;-144.48;100.00
10688;BME280;5392;42.688;23.298;2023-02-01T07:21:07;57565.81;;;-144.48;100.00
10688;BME280;5392;42.688;23.298;2023-02-01T07:23:34;57578.31;;;-144.48;100.00
10688;BME280;5392;42.688;23.298;2023-02-01T07:26:03;57601.28;;;-144.48;100.00
10688;BME280;5392;42.688;23.298;2023-02-01T07:28:33;57584.59;;;-144.48;100.00
10688;BME280;5392;42.688;23.298;2023-02-01T07:31:14;57597.09;;;-144.48;100.00
10688;BME280;5392;42.688;23.298;2023-02-01T07:33:42;57576.22;;;-144.48;100.00
10688;BME280;5392;42.688;23.298;2023-02-01T07:36:11;57576.22;;;-144.48;100.00
10688;BME280;5392;42.688;23.298;2023-02-01T07:38:38;57576.22;;;-144.48;100.00
10688;BME280;5392;42.688;23.298;2023-02-01T07:41:05;57580.41;;;-144.48;100.00
10688;BME280;5392;42.688;23.298;2023-02-01T07:43:32;57569.97;;;-144.48;100.00
10688;BME280;5392;42.688;23.298;2023-02-01T07:46:03;57590.84;;;-144.48;100.00
10688;BME280;5392;42.688;23.298;2023-02-01T07:48:31;57572.06;;;-144.48;100.00
10688;BME280;5392;42.688;23.298;2023-02-01T07:51:07;57574.16;;;-144.48;100.00
10688;BME280;5392;42.688;23.298;2023-02-01T07:53:34;57609.63;;;-144.48;100.00
10688;BME280;5392;42.688;23.298;2023-02-01T07:56:08;57584.59;;;-144.48;100.00
10688;BME280;5392;42.688;23.298;2023-02-01T07:58:35;57601.28;;;-144.48;100.00
10688;BME280;5392;42.688;23.298;2023-02-01T08:01:02;57572.06;;;-144.48;100.00
10688;BME280;5392;42.688;23.298;2023-02-01T08:03:49;57551.19;;;-144.48;99.77
10688;BME280;5392;42.688;23.298;2023-02-01T08:06:16;57561.63;;;-144.48;99.25
10688;BME280;5392;42.688;23.298;2023-02-01T08:08:43;57617.97;;;-144.48;99.42
10688;BME280;5392;42.688;23.298;2023-02-01T08:11:11;57584.59;;;-144.48;99.42
10688;BME280;5392;42.688;23.298;2023-02-01T08:13:39;57567.88;;;-144.48;98.55
10688;BME280;5392;42.688;23.298;2023-02-01T08:16:07;57572.06;;;-144.48;97.30
10688;BME280;5392;42.688;23.298;2023-02-01T08:18:35;57580.41;;;-144.48;96.28
10688;BME280;5392;42.688;23.298;2023-02-01T08:21:03;57597.09;;;-144.48;96.06
10688;BME280;5392;42.688;23.298;2023-02-01T08:23:30;57588.75;;;-144.48;96.67
10688;BME280;5392;42.688;23.298;2023-02-01T08:26:08;57582.50;;;-144.48;95.79
10688;BME280;5392;42.688;23.298;2023-02-01T08:28:35;57586.66;;;-144.48;93.96
10688;BME280;5392;42.688;23.298;2023-02-01T08:31:05;57565.81;;;-144.48;94.20
10688;BME280;5392;42.688;23.298;2023-02-01T08:33:32;57592.94;;;-144.48;93.84
10688;BME280;5392;42.688;23.298;2023-02-01T08:36:03;57574.16;;;-144.48;92.57
10688;BME280;5392;42.688;23.298;2023-02-01T08:38:30;57540.75;;;-144.48;91.90
10688;BME280;5392;42.688;23.298;2023-02-01T08:41:04;57572.06;;;-144.48;90.81
10688;BME280;5392;42.688;23.298;2023-02-01T08:43:31;57599.19;;;-144.48;89.76
10688;BME280;5392;42.688;23.298;2023-02-01T08:45:57;57590.84;;;-144.48;88.11
10688;BME280;5392;42.688;23.298;2023-02-01T08:48:24;57592.94;;;-144.48;88.46
10688;BME280;5392;42.688;23.298;2023-02-01T08:50:51;57572.06;;;-144.48;87.89
10688;BME280;5392;42.688;23.298;2023-02-01T08:53:18;57555.38;;;-144.48;87.47
10688;BME280;5392;42.688;23.298;2023-02-01T08:55:46;57582.50;;;-144.48;87.30
10688;BME280;5392;42.688;23.298;2023-02-01T08:58:13;57549.09;;;-144.48;87.37
10688;BME280;5392;42.688;23.298;2023-02-01T09:00:40;57567.88;;;-144.48;86.90
10688;BME280;5392;42.688;23.298;2023-02-01T09:03:09;57611.72;;;-144.48;86.91
10688;BME280;5392;42.688;23.298;2023-02-01T09:05:37;57574.16;;;-144.48;86.15
10688;BME280;5392;42.688;23.298;2023-02-01T09:08:14;57592.94;;;-144.48;85.85
10688;BME280;5392;42.688;23.298;2023-02-01T09:10:42;57567.88;;;-144.48;86.08
10688;BME280;5392;42.688;23.298;2023-02-01T09:13:09;57584.59;;;-144.48;86.06
10688;BME280;5392;42.688;23.298;2023-02-01T09:15:37;57576.22;;;-144.48;85.39
10688;BME280;5392;42.688;23.298;2023-02-01T09:18:04;57551.19;;;-144.48;86.09
10688;BME280;5392;42.688;23.298;2023-02-01T09:20:31;57586.66;;;-144.48;84.51
10688;BME280;5392;42.688;23.298;2023-02-01T09:22:57;57588.75;;;-144.48;83.39
10688;BME280;5392;42.688;23.298;2023-02-01T09:25:24;57559.53;;;-144.48;84.31
10688;BME280;5392;42.688;23.298;2023-02-01T09:27:51;57584.59;;;-144.48;83.81
10688;BME280;5392;42.688;23.298;2023-02-01T09:30:18;57599.19;;;-144.48;82.66
10688;BME280;5392;42.688;23.298;2023-02-01T09:32:45;57576.22;;;-144.48;82.49
10688;BME280;5392;42.688;23.298;2023-02-01T09:35:11;57572.06;;;-144.48;82.84
10688;BME280;5392;42.688;23.298;2023-02-01T09:37:38;57536.56;;;-144.48;85.94
10688;BME280;5392;42.688;23.298;2023-02-01T09:40:05;57595.03;;;-144.48;85.33
10688;BME280;5392;42.688;23.298;2023-02-01T09:43:10;57597.09;;;-144.48;85.70
10688;BME280;5392;42.688;23.298;2023-02-01T09:48:17;57544.94;;;-144.48;85.31
10688;BME280;5392;42.688;23.298;2023-02-01T09:50:54;57584.59;;;-144.48;82.52
10688;BME280;5392;42.688;23.298;2023-02-01T09:53:30;57569.97;;;-144.48;82.48
10688;BME280;5392;42.688;23.298;2023-02-01T09:56:04;57567.88;;;-144.48;81.33
10688;BME280;5392;42.688;23.298;2023-02-01T09:58:36;57586.66;;;-144.48;79.22
10688;BME280;5392;42.688;23.298;2023-02-01T10:01:43;57586.66;;;-144.48;79.04
10688;BME280;5392;42.688;23.298;2023-02-01T10:04:07;57609.63;;;-144.48;78.93
10688;BME280;5392;42.688;23.298;2023-02-01T10:09:42;57563.72;;;-144.48;76.68
10688;BME280;5392;42.688;23.298;2023-02-01T10:18:05;57559.53;;;-144.48;75.24
10688;BME280;5392;42.688;23.298;2023-02-01T10:26:16;57599.19;;;-144.48;73.44
10688;BME280;5392;42.688;23.298;2023-02-01T10:28:48;57567.88;;;-144.48;74.06
10688;BME280;5392;42.688;23.298;2023-02-01T10:31:16;57597.09;;;-144.48;73.57
10688;BME280;5392;42.688;23.298;2023-02-01T10:33:52;57551.19;;;-144.48;73.27
10688;BME280;5392;42.688;23.298;2023-02-01T10:38:58;57565.81;;;-144.48;73.80
10688;BME280;5392;42.688;23.298;2023-02-01T10:41:31;57563.72;;;-144.48;74.26
10688;BME280;5392;42.688;23.298;2023-02-01T10:44:02;57622.16;;;-144.48;73.37
10688;BME280;5392;42.688;23.298;2023-02-01T10:46:30;57567.88;;;-144.48;71.70
10688;BME280;5392;42.688;23.298;2023-02-01T10:49:00;57551.19;;;-144.48;70.78
10688;BME280;5392;42.688;23.298;2023-02-01T10:54:03;57586.66;;;-144.48;71.52
10688;BME280;5392;42.688;23.298;2023-02-01T10:56:31;57599.19;;;-144.48;71.57
10688;BME280;5392;42.688;23.298;2023-02-01T10:59:06;57609.63;;;-144.48;70.39
10688;BME280;5392;42.688;23.298;2023-02-01T11:01:41;57590.84;;;-144.48;70.41
10688;BME280;5392;42.688;23.298;2023-02-01T11:04:13;57569.97;;;-144.48;70.73
10688;BME280;5392;42.688;23.298;2023-02-01T11:06:43;57542.84;;;-144.48;71.96
10688;BME280;5392;42.688;23.298;2023-02-01T11:09:22;57567.88;;;-144.48;72.18
10688;BME280;5392;42.688;23.298;2023-02-01T11:16:59;57580.41;;;-144.48;71.41
10688;BME280;5392;42.688;23.298;2023-02-01T11:19:27;57536.56;;;-144.48;71.53
10688;BME280;5392;42.688;23.298;2023-02-01T11:21:57;57584.59;;;-144.48;73.07
10688;BME280;5392;42.688;23.298;2023-02-01T11:24:31;57542.84;;;-144.48;73.10
10688;BME280;5392;42.688;23.298;2023-02-01T11:27:02;57534.50;;;-144.48;73.39
10688;BME280;5392;42.688;23.298;2023-02-01T11:29:38;57588.75;;;-144.48;73.05
10688;BME280;5392;42.688;23.298;2023-02-01T11:32:05;57528.22;;;-144.48;72.75
10688;BME280;5392;42.688;23.298;2023-02-01T11:34:38;57603.38;;;-144.48;71.26
10688;BME280;5392;42.688;23.298;2023-02-01T11:37:15;57582.50;;;-144.48;70.63
10688;BME280;5392;42.688;23.298;2023-02-01T11:39:53;57538.66;;;-144.48;70.88
10688;BME280;5392;42.688;23.298;2023-02-01T11:42:21;57580.41;;;-144.48;70.57
10688;BME280;5392;42.688;23.298;2023-02-01T11:44:47;57599.19;;;-144.48;70.68
10688;BME280;5392;42.688;23.298;2023-02-01T11:49:49;57584.59;;;-144.48;71.45
10688;BME280;5392;42.688;23.298;2023-02-01T12:01:38;57555.38;;;-144.48;70.75
10688;BME280;5392;42.688;23.298;2023-02-01T12:09:14;57590.84;;;-144.48;71.61
10688;BME280;5392;42.688;23.298;2023-02-01T12:25:46;57605.47;;;-144.48;70.87
10688;BME280;5392;42.688;23.298;2023-02-01T12:31:20;57551.19;;;-144.48;71.32
10688;BME280;5392;42.688;23.298;2023-02-01T12:34:12;57534.50;;;-144.48;71.38
10688;BME280;5392;42.688;23.298;2023-02-01T12:36:46;57553.28;;;-144.48;71.68
10688;BME280;5392;42.688;23.298;2023-02-01T12:39:24;57595.03;;;-144.48;70.58
10688;BME280;5392;42.688;23.298;2023-02-01T12:42:03;57557.44;;;-144.48;71.45
10688;BME280;5392;42.688;23.298;2023-02-01T12:50:47;57569.97;;;-144.48;69.94
10688;BME280;5392;42.688;23.298;2023-02-01T12:53:27;57651.38;;;-144.48;68.34
10688;BME280;5392;42.688;23.298;2023-02-01T12:56:00;57597.09;;;-144.48;69.38
10688;BME280;5392;42.688;23.298;2023-02-01T12:58:44;57536.56;;;-144.48;68.77
10688;BME280;5392;42.688;23.298;2023-02-01T13:01:17;57584.59;;;-144.48;69.01
10688;BME280;5392;42.688;23.298;2023-02-01T13:04:15;57580.41;;;-144.48;69.27
10688;BME280;5392;42.688;23.298;2023-02-01T13:07:00;57578.31;;;-144.48;68.10
10688;BME280;5392;42.688;23.298;2023-02-01T13:12:17;57582.50;;;-144.48;69.43
10688;BME280;5392;42.688;23.298;2023-02-01T13:14:53;57586.66;;;-144.48;68.79
10688;BME280;5392;42.688;23.298;2023-02-01T13:17:28;57563.72;;;-144.48;69.24
10688;BME280;5392;42.688;23.298;2023-02-01T13:20:22;57565.81;;;-144.48;68.73
10688;BME280;5392;42.688;23.298;2023-02-01T13:22:57;57555.38;;;-144.48;69.38
10688;BME280;5392;42.688;23.298;2023-02-01T13:25:47;57580.41;;;-144.48;68.26
10688;BME280;5392;42.688;23.298;2023-02-01T13:42:03;57561.63;;;-144.48;68.74
10688;BME280;5392;42.688;23.298;2023-02-01T13:47:16;57530.31;;;-144.48;68.25
10688;BME280;5392;42.688;23.298;2023-02-01T13:49:45;57582.50;;;-144.48;67.74
10688;BME280;5392;42.688;23.298;2023-02-01T13:52:41;57580.41;;;-144.48;68.27
10688;BME280;5392;42.688;23.298;2023-02-01T13:55:22;57530.31;;;-144.48;67.88
10688;BME280;5392;42.688;23.298;2023-02-01T13:58:20;57576.22;;;-144.48;68.05
10688;BME280;5392;42.688;23.298;2023-02-01T14:00:47;57599.19;;;-144.48;67.37
10688;BME280;5392;42.688;23.298;2023-02-01T14:03:45;57559.53;;;-144.48;67.36
10688;BME280;5392;42.688;23.298;2023-02-01T14:06:34;57580.41;;;-144.48;67.84
10688;BME280;5392;42.688;23.298;2023-02-01T14:09:11;57547.00;;;-144.48;67.72
10688;BME280;5392;42.688;23.298;2023-02-01T14:19:37;57569.97;;;-144.48;67.98
10688;BME280;5392;42.688;23.298;2023-02-01T14:24:54;57547.00;;;-144.48;68.08
10688;BME280;5392;42.688;23.298;2023-02-01T14:27:28;57622.16;;;-144.48;68.50
10688;BME280;5392;42.688;23.298;2023-02-01T14:29:59;57517.78;;;-144.48;68.44
10688;BME280;5392;42.688;23.298;2023-02-01T14:32:38;57559.53;;;-144.48;68.78
10688;BME280;5392;42.688;23.298;2023-02-01T14:35:21;57565.81;;;-144.48;68.92
10688;BME280;5392;42.688;23.298;2023-02-01T14:37:54;57582.50;;;-144.48;69.41
10688;BME280;5392;42.688;23.298;2023-02-01T14:40:27;57561.63;;;-144.48;70.32
10688;BME280;5392;42.688;23.298;2023-02-01T14:42:54;57588.75;;;-144.48;70.64
10688;BME280;5392;42.688;23.298;2023-02-01T14:47:54;57607.53;;;-144.48;71.35
10688;BME280;5392;42.688;23.298;2023-02-01T15:01:04;57615.91;;;-144.48;72.44
10688;BME280;5392;42.688;23.298;2023-02-01T15:06:33;57565.81;;;-144.48;73.35
10688;BME280;5392;42.688;23.298;2023-02-01T15:14:32;57578.31;;;-144.48;75.60
10688;BME280;5392;42.688;23.298;2023-02-01T15:17:00;57519.88;;;-144.48;75.80
10688;BME280;5392;42.688;23.298;2023-02-01T15:19:29;57597.09;;;-144.48;75.19
10688;BME280;5392;42.688;23.298;2023-02-01T15:21:58;57580.41;;;-144.48;75.44
10688;BME280;5392;42.688;23.298;2023-02-01T15:24:30;57580.41;;;-144.48;75.82